Atwater, Illinois
Current Conditions -  °F | °C
As of 2:15 AM on Thursday 27 Nov 2014 (Local Time) from K3LF Reporting Station
Overcast Overcast  
Wind Chill: 18°   Ceiling: 1400
Heat Index: 27°   Visibility: 7mi
Dew Point: 24°   Wind: 10mph
Humidity: 86%   Direction: 350°N
Pressure: 30.28"   Gusts: NA
Location:  39.33°N, 89.72°W
Report Text: K3LF 270815Z AUTO 35009KT 7SM BKN014 OVC050 M03/M05 A3028 RMK AO2 T10271047
Loading
Personal Weather Stations






























Interactive Weather Map New forecast layout! Learn more

10-Day Weather Forecast

Advertisements
Track Severe Weather on mobile